sensor_id;sensor_type;location;lat;lon;timestamp;pressure;altitude;pressure_sealevel;temperature;humidity
17593;BME280;8915;51.760;14.300;2022-08-21T00:01:10;100722.19;;;17.34;100.00
17593;BME280;8915;51.760;14.300;2022-08-21T00:03:39;100722.69;;;17.41;100.00
17593;BME280;8915;51.760;14.300;2022-08-21T00:06:06;100719.22;;;17.40;100.00
17593;BME280;8915;51.760;14.300;2022-08-21T00:08:32;100717.59;;;17.38;100.00
17593;BME280;8915;51.760;14.300;2022-08-21T00:11:01;100722.94;;;17.36;100.00
17593;BME280;8915;51.760;14.300;2022-08-21T00:13:27;100719.28;;;17.39;100.00
17593;BME280;8915;51.760;14.300;2022-08-21T00:15:53;100718.38;;;17.40;100.00
17593;BME280;8915;51.760;14.300;2022-08-21T00:18:20;100721.69;;;17.44;100.00
17593;BME280;8915;51.760;14.300;2022-08-21T00:20:47;100718.09;;;17.45;100.00
17593;BME280;8915;51.760;14.300;2022-08-21T00:23:14;100718.22;;;17.43;100.00
17593;BME280;8915;51.760;14.300;2022-08-21T00:25:42;100721.78;;;17.42;100.00
17593;BME280;8915;51.760;14.300;2022-08-21T00:28:12;100724.41;;;17.42;100.00
17593;BME280;8915;51.760;14.300;2022-08-21T00:30:39;100724.41;;;17.42;100.00
17593;BME280;8915;51.760;14.300;2022-08-21T00:33:06;100719.06;;;17.44;100.00
17593;BME280;8915;51.760;14.300;2022-08-21T00:35:36;100718.22;;;17.43;100.00
17593;BME280;8915;51.760;14.300;2022-08-21T00:38:05;100717.41;;;17.41;100.00
17593;BME280;8915;51.760;14.300;2022-08-21T00:40:36;100715.66;;;17.41;100.00
17593;BME280;8915;51.760;14.300;2022-08-21T00:43:04;100720.75;;;17.45;100.00
17593;BME280;8915;51.760;14.300;2022-08-21T00:45:34;100717.34;;;17.42;100.00
17593;BME280;8915;51.760;14.300;2022-08-21T00:48:00;100720.94;;;17.41;100.00
17593;BME280;8915;51.760;14.300;2022-08-21T00:50:32;100713.84;;;17.42;100.00
17593;BME280;8915;51.760;14.300;2022-08-21T00:53:00;100718.28;;;17.41;100.00
17593;BME280;8915;51.760;14.300;2022-08-21T00:55:28;100719.06;;;17.44;100.00
17593;BME280;8915;51.760;14.300;2022-08-21T00:57:57;100725.16;;;17.44;100.00
17593;BME280;8915;51.760;14.300;2022-08-21T01:00:28;100723.47;;;17.43;100.00
17593;BME280;8915;51.760;14.300;2022-08-21T01:02:57;100722.47;;;17.46;100.00
17593;BME280;8915;51.760;14.300;2022-08-21T01:05:24;100716.34;;;17.45;100.00
17593;BME280;8915;51.760;14.300;2022-08-21T01:07:52;100716.25;;;17.47;100.00
17593;BME280;8915;51.760;14.300;2022-08-21T01:10:19;100724.31;;;17.44;100.00
17593;BME280;8915;51.760;14.300;2022-08-21T01:12:46;100714.63;;;17.44;100.00
17593;BME280;8915;51.760;14.300;2022-08-21T01:15:12;100719.06;;;17.44;100.00
17593;BME280;8915;51.760;14.300;2022-08-21T01:17:40;100718.22;;;17.43;100.00
17593;BME280;8915;51.760;14.300;2022-08-21T01:20:10;100716.50;;;17.42;100.00
17593;BME280;8915;51.760;14.300;2022-08-21T01:22:38;100725.94;;;17.46;100.00
17593;BME280;8915;51.760;14.300;2022-08-21T01:25:07;100724.25;;;17.45;100.00
17593;BME280;8915;51.760;14.300;2022-08-21T01:27:34;100718.03;;;17.46;100.00
17593;BME280;8915;51.760;14.300;2022-08-21T01:30:07;100721.53;;;17.47;100.00
17593;BME280;8915;51.760;14.300;2022-08-21T01:32:36;100721.53;;;17.47;100.00
17593;BME280;8915;51.760;14.300;2022-08-21T01:35:04;100729.34;;;17.48;100.00
17593;BME280;8915;51.760;14.300;2022-08-21T01:37:30;100725.09;;;17.46;100.00
17593;BME280;8915;51.760;14.300;2022-08-21T01:39:58;100725.94;;;17.46;100.00
17593;BME280;8915;51.760;14.300;2022-08-21T01:42:25;100724.25;;;17.45;100.00
17593;BME280;8915;51.760;14.300;2022-08-21T01:44:52;100724.16;;;17.47;100.00
17593;BME280;8915;51.760;14.300;2022-08-21T01:47:18;100721.53;;;17.47;100.00
17593;BME280;8915;51.760;14.300;2022-08-21T01:49:45;100717.94;;;17.48;100.00
17593;BME280;8915;51.760;14.300;2022-08-21T01:52:11;100724.16;;;17.47;100.00
17593;BME280;8915;51.760;14.300;2022-08-21T01:54:38;100713.53;;;17.48;100.00
17593;BME280;8915;51.760;14.300;2022-08-21T01:57:07;100719.75;;;17.47;100.00
17593;BME280;8915;51.760;14.300;2022-08-21T01:59:34;100720.59;;;17.48;100.00
17593;BME280;8915;51.760;14.300;2022-08-21T02:02:02;100719.81;;;17.46;100.00
17593;BME280;8915;51.760;14.300;2022-08-21T02:04:28;100723.28;;;17.46;100.00
17593;BME280;8915;51.760;14.300;2022-08-21T02:06:56;100719.06;;;17.44;100.00
17593;BME280;8915;51.760;14.300;2022-08-21T02:09:22;100725.25;;;17.42;100.00
17593;BME280;8915;51.760;14.300;2022-08-21T02:11:48;100731.69;;;17.37;100.00
17593;BME280;8915;51.760;14.300;2022-08-21T02:14:16;100733.56;;;17.35;100.00
17593;BME280;8915;51.760;14.300;2022-08-21T02:16:44;100735.38;;;17.34;100.00
17593;BME280;8915;51.760;14.300;2022-08-21T02:19:12;100730.94;;;17.35;100.00
17593;BME280;8915;51.760;14.300;2022-08-21T02:21:39;100737.13;;;17.34;100.00
17593;BME280;8915;51.760;14.300;2022-08-21T02:24:06;100730.16;;;17.33;100.00
17593;BME280;8915;51.760;14.300;2022-08-21T02:26:33;100732.28;;;17.26;100.00
17593;BME280;8915;51.760;14.300;2022-08-21T02:28:59;100740.25;;;17.25;100.00
17593;BME280;8915;51.760;14.300;2022-08-21T02:31:27;100743.91;;;17.22;100.00
17593;BME280;8915;51.760;14.300;2022-08-21T02:33:54;100742.19;;;17.21;100.00
17593;BME280;8915;51.760;14.300;2022-08-21T02:36:20;100742.13;;;17.22;100.00
17593;BME280;8915;51.760;14.300;2022-08-21T02:38:47;100731.72;;;17.19;100.00
17593;BME280;8915;51.760;14.300;2022-08-21T02:41:16;100733.53;;;17.19;100.00
17593;BME280;8915;51.760;14.300;2022-08-21T02:43:44;100738.88;;;17.17;100.00
17593;BME280;8915;51.760;14.300;2022-08-21T02:46:12;100743.38;;;17.15;100.00
17593;BME280;8915;51.760;14.300;2022-08-21T02:48:41;100738.19;;;17.14;100.00
17593;BME280;8915;51.760;14.300;2022-08-21T02:51:10;100738.25;;;17.12;100.00
17593;BME280;8915;51.760;14.300;2022-08-21T02:53:37;100733.06;;;17.11;100.00
17593;BME280;8915;51.760;14.300;2022-08-21T02:56:08;100738.25;;;17.12;100.00
17593;BME280;8915;51.760;14.300;2022-08-21T02:58:38;100736.53;;;17.11;100.00
17593;BME280;8915;51.760;14.300;2022-08-21T03:01:06;100734.09;;;17.08;100.00
17593;BME280;8915;51.760;14.300;2022-08-21T03:03:35;100733.22;;;17.08;100.00
17593;BME280;8915;51.760;14.300;2022-08-21T03:06:04;100734.94;;;17.09;100.00
17593;BME280;8915;51.760;14.300;2022-08-21T03:08:31;100734.16;;;17.07;100.00
17593;BME280;8915;51.760;14.300;2022-08-21T03:10:58;100730.75;;;17.05;100.00
17593;BME280;8915;51.760;14.300;2022-08-21T03:13:26;100729.88;;;17.04;100.00
17593;BME280;8915;51.760;14.300;2022-08-21T03:15:53;100737.97;;;17.01;100.00
17593;BME280;8915;51.760;14.300;2022-08-21T03:18:20;100726.88;;;16.94;100.00
17593;BME280;8915;51.760;14.300;2022-08-21T03:20:47;100732.31;;;16.91;100.00
17593;BME280;8915;51.760;14.300;2022-08-21T03:23:15;100732.38;;;16.90;100.00
17593;BME280;8915;51.760;14.300;2022-08-21T03:25:43;100729.13;;;16.84;100.00
17593;BME280;8915;51.760;14.300;2022-08-21T03:28:12;100722.16;;;16.83;100.00
17593;BME280;8915;51.760;14.300;2022-08-21T03:30:39;100716.91;;;16.83;100.00
17593;BME280;8915;51.760;14.300;2022-08-21T03:33:06;100710.81;;;16.81;100.00
17593;BME280;8915;51.760;14.300;2022-08-21T03:35:33;100706.38;;;16.83;100.00
17593;BME280;8915;51.760;14.300;2022-08-21T03:37:59;100707.06;;;16.87;100.00
17593;BME280;8915;51.760;14.300;2022-08-21T03:40:27;100705.34;;;16.86;100.00
17593;BME280;8915;51.760;14.300;2022-08-21T03:42:53;100702.78;;;16.84;100.00
17593;BME280;8915;51.760;14.300;2022-08-21T03:45:20;100706.19;;;16.87;100.00
17593;BME280;8915;51.760;14.300;2022-08-21T03:47:51;100705.34;;;16.86;100.00
17593;BME280;8915;51.760;14.300;2022-08-21T03:50:18;100707.97;;;16.86;100.00
17593;BME280;8915;51.760;14.300;2022-08-21T03:52:44;100707.13;;;16.86;100.00
17593;BME280;8915;51.760;14.300;2022-08-21T03:55:11;100707.91;;;16.88;100.00
17593;BME280;8915;51.760;14.300;2022-08-21T03:57:38;100707.97;;;16.86;100.00
17593;BME280;8915;51.760;14.300;2022-08-21T04:00:06;100712.41;;;16.86;100.00
17593;BME280;8915;51.760;14.300;2022-08-21T04:02:36;100718.63;;;16.83;100.00
17593;BME280;8915;51.760;14.300;2022-08-21T04:05:04;100720.50;;;16.81;100.00
17593;BME280;8915;51.760;14.300;2022-08-21T04:07:31;100720.50;;;16.81;100.00
17593;BME280;8915;51.760;14.300;2022-08-21T04:09:57;100730.06;;;16.83;100.00
17593;BME280;8915;51.760;14.300;2022-08-21T04:12:24;100719.56;;;16.82;100.00
17593;BME280;8915;51.760;14.300;2022-08-21T04:14:51;100722.22;;;16.82;100.00
17593;BME280;8915;51.760;14.300;2022-08-21T04:17:18;100723.91;;;16.83;100.00
17593;BME280;8915;51.760;14.300;2022-08-21T04:19:45;100727.56;;;16.80;100.00
17593;BME280;8915;51.760;14.300;2022-08-21T04:22:11;100727.47;;;16.82;100.00
17593;BME280;8915;51.760;14.300;2022-08-21T04:24:38;100729.25;;;16.81;100.00
17593;BME280;8915;51.760;14.300;2022-08-21T04:27:04;100733.66;;;16.81;100.00
17593;BME280;8915;51.760;14.300;2022-08-21T04:29:31;100733.66;;;16.81;100.00
17593;BME280;8915;51.760;14.300;2022-08-21T04:31:58;100728.47;;;16.79;100.00
17593;BME280;8915;51.760;14.300;2022-08-21T04:34:25;100731.03;;;16.81;100.00
17593;BME280;8915;51.760;14.300;2022-08-21T04:36:51;100733.03;;;16.76;100.00
17593;BME280;8915;51.760;14.300;2022-08-21T04:39:18;100734.69;;;16.78;100.00
17593;BME280;8915;51.760;14.300;2022-08-21T04:41:44;100734.75;;;16.77;100.00
17593;BME280;8915;51.760;14.300;2022-08-21T04:44:11;100732.03;;;16.78;100.00
17593;BME280;8915;51.760;14.300;2022-08-21T04:46:37;100740.03;;;16.77;100.00
17593;BME280;8915;51.760;14.300;2022-08-21T04:49:05;100741.63;;;16.79;100.00
17593;BME280;8915;51.760;14.300;2022-08-21T04:51:34;100738.22;;;16.77;100.00
17593;BME280;8915;51.760;14.300;2022-08-21T04:54:06;100744.19;;;16.81;100.00
17593;BME280;8915;51.760;14.300;2022-08-21T04:56:37;100744.91;;;16.84;100.00
17593;BME280;8915;51.760;14.300;2022-08-21T04:59:07;100751.91;;;16.86;100.00
17593;BME280;8915;51.760;14.300;2022-08-21T05:01:37;100758.84;;;16.87;100.00
17593;BME280;8915;51.760;14.300;2022-08-21T05:04:09;100749.91;;;16.91;100.00
17593;BME280;8915;51.760;14.300;2022-08-21T05:06:37;100750.75;;;16.91;100.00
17593;BME280;8915;51.760;14.300;2022-08-21T05:09:06;100756.31;;;16.85;100.00
17593;BME280;8915;51.760;14.300;2022-08-21T05:11:35;100755.44;;;16.84;100.00
17593;BME280;8915;51.760;14.300;2022-08-21T05:14:02;100758.72;;;16.90;100.00
17593;BME280;8915;51.760;14.300;2022-08-21T05:16:28;100759.47;;;16.92;100.00
17593;BME280;8915;51.760;14.300;2022-08-21T05:18:55;100767.22;;;16.95;100.00
17593;BME280;8915;51.760;14.300;2022-08-21T05:21:23;100765.50;;;16.94;100.00
17593;BME280;8915;51.760;14.300;2022-08-21T05:23:49;100761.97;;;16.95;100.00
17593;BME280;8915;51.760;14.300;2022-08-21T05:26:15;100767.22;;;16.95;100.00
17593;BME280;8915;51.760;14.300;2022-08-21T05:28:42;100776.66;;;16.99;100.00
17593;BME280;8915;51.760;14.300;2022-08-21T05:31:08;100770.34;;;17.03;100.00
17593;BME280;8915;51.760;14.300;2022-08-21T05:33:35;100774.72;;;17.02;100.00
17593;BME280;8915;51.760;14.300;2022-08-21T05:36:02;100771.94;;;17.06;100.00
17593;BME280;8915;51.760;14.300;2022-08-21T05:38:30;100776.16;;;17.10;100.00
17593;BME280;8915;51.760;14.300;2022-08-21T05:40:57;100772.50;;;17.12;100.00
17593;BME280;8915;51.760;14.300;2022-08-21T05:43:23;100775.91;;;17.14;100.00
17593;BME280;8915;51.760;14.300;2022-08-21T05:45:50;100771.41;;;17.16;100.00
17593;BME280;8915;51.760;14.300;2022-08-21T05:48:18;100777.28;;;17.21;100.00
17593;BME280;8915;51.760;14.300;2022-08-21T05:50:47;100780.53;;;17.27;100.00
17593;BME280;8915;51.760;14.300;2022-08-21T05:55:43;100787.88;;;17.37;100.00
17593;BME280;8915;51.760;14.300;2022-08-21T05:58:10;100785.16;;;17.39;100.00
17593;BME280;8915;51.760;14.300;2022-08-21T06:00:37;100787.66;;;17.42;100.00
17593;BME280;8915;51.760;14.300;2022-08-21T06:03:03;100788.13;;;17.50;100.00
17593;BME280;8915;51.760;14.300;2022-08-21T06:05:30;100780.28;;;17.49;100.00
17593;BME280;8915;51.760;14.300;2022-08-21T06:07:56;100777.22;;;17.56;100.00
17593;BME280;8915;51.760;14.300;2022-08-21T06:10:23;100783.97;;;17.62;100.00
17593;BME280;8915;51.760;14.300;2022-08-21T06:12:53;100781.25;;;17.64;100.00
17593;BME280;8915;51.760;14.300;2022-08-21T06:15:20;100779.22;;;17.69;100.00
17593;BME280;8915;51.760;14.300;2022-08-21T06:17:47;100782.88;;;17.66;100.00
17593;BME280;8915;51.760;14.300;2022-08-21T06:20:13;100777.41;;;17.69;100.00
17593;BME280;8915;51.760;14.300;2022-08-21T06:22:40;100768.44;;;17.73;100.00
17593;BME280;8915;51.760;14.300;2022-08-21T06:25:06;100770.13;;;17.74;100.00
17593;BME280;8915;51.760;14.300;2022-08-21T06:27:34;100774.03;;;17.83;100.00
17593;BME280;8915;51.760;14.300;2022-08-21T06:30:02;100772.53;;;17.79;100.00
17593;BME280;8915;51.760;14.300;2022-08-21T06:32:29;100763.56;;;17.82;100.00
17593;BME280;8915;51.760;14.300;2022-08-21T06:34:56;100759.91;;;17.68;100.00
17593;BME280;8915;51.760;14.300;2022-08-21T06:37:22;100769.97;;;17.77;100.00
17593;BME280;8915;51.760;14.300;2022-08-21T06:39:49;100761.59;;;17.69;100.00
17593;BME280;8915;51.760;14.300;2022-08-21T06:42:16;100755.09;;;17.76;100.00
17593;BME280;8915;51.760;14.300;2022-08-21T06:44:43;100760.25;;;17.78;100.00
17593;BME280;8915;51.760;14.300;2022-08-21T06:47:11;100748.78;;;17.79;100.00
17593;BME280;8915;51.760;14.300;2022-08-21T06:49:38;100753.81;;;17.84;100.00
17593;BME280;8915;51.760;14.300;2022-08-21T06:52:08;100759.06;;;17.68;100.00
17593;BME280;8915;51.760;14.300;2022-08-21T06:54:35;100755.50;;;17.69;100.00
17593;BME280;8915;51.760;14.300;2022-08-21T06:57:02;100750.91;;;17.72;100.00
17593;BME280;8915;51.760;14.300;2022-08-21T06:59:28;100762.13;;;17.76;100.00
17593;BME280;8915;51.760;14.300;2022-08-21T07:01:55;100760.75;;;17.69;100.00
17593;BME280;8915;51.760;14.300;2022-08-21T07:04:23;100769.09;;;17.61;100.00
17593;BME280;8915;51.760;14.300;2022-08-21T07:06:49;100760.75;;;17.69;100.00
17593;BME280;8915;51.760;14.300;2022-08-21T07:09:16;100764.16;;;17.71;100.00
17593;BME280;8915;51.760;14.300;2022-08-21T07:11:44;100766.78;;;17.71;100.00
17593;BME280;8915;51.760;14.300;2022-08-21T07:14:13;100770.31;;;17.71;100.00
17593;BME280;8915;51.760;14.300;2022-08-21T07:16:39;100765.13;;;17.70;100.00
17593;BME280;8915;51.760;14.300;2022-08-21T07:19:05;100763.25;;;17.72;100.00
17593;BME280;8915;51.760;14.300;2022-08-21T07:21:33;100762.13;;;17.76;100.00
17593;BME280;8915;51.760;14.300;2022-08-21T07:23:59;100760.75;;;17.69;100.00
17593;BME280;8915;51.760;14.300;2022-08-21T07:26:26;100767.06;;;17.66;100.00
17593;BME280;8915;51.760;14.300;2022-08-21T07:28:53;100770.13;;;17.74;100.00
17593;BME280;8915;51.760;14.300;2022-08-21T07:31:22;100770.03;;;17.76;100.00
17593;BME280;8915;51.760;14.300;2022-08-21T07:33:49;100776.94;;;17.63;100.00
17593;BME280;8915;51.760;14.300;2022-08-21T07:36:15;100776.44;;;17.72;100.00
17593;BME280;8915;51.760;14.300;2022-08-21T07:38:44;100775.31;;;17.76;100.00
17593;BME280;8915;51.760;14.300;2022-08-21T07:41:14;100765.53;;;17.78;100.00
17593;BME280;8915;51.760;14.300;2022-08-21T07:43:42;100779.91;;;17.72;100.00
17593;BME280;8915;51.760;14.300;2022-08-21T07:46:08;100768.75;;;17.67;100.00
17593;BME280;8915;51.760;14.300;2022-08-21T07:48:35;100758.63;;;17.59;100.00
17593;BME280;8915;51.760;14.300;2022-08-21T07:51:05;100769.34;;;17.72;100.00
17593;BME280;8915;51.760;14.300;2022-08-21T07:53:32;100768.78;;;17.83;100.00
17593;BME280;8915;51.760;14.300;2022-08-21T07:56:00;100766.44;;;17.94;100.00
17593;BME280;8915;51.760;14.300;2022-08-21T07:58:27;100758.47;;;17.96;100.00
17593;BME280;8915;51.760;14.300;2022-08-21T08:00:53;100758.78;;;18.06;100.00
17593;BME280;8915;51.760;14.300;2022-08-21T08:03:20;100753.28;;;18.10;100.00
17593;BME280;8915;51.760;14.300;2022-08-21T08:05:46;100757.78;;;18.24;100.00
17593;BME280;8915;51.760;14.300;2022-08-21T08:08:13;100757.41;;;18.30;100.00
17593;BME280;8915;51.760;14.300;2022-08-21T08:10:39;100765.84;;;18.37;100.00
17593;BME280;8915;51.760;14.300;2022-08-21T08:13:08;100764.38;;;18.47;100.00
17593;BME280;8915;51.760;14.300;2022-08-21T08:15:35;100772.22;;;18.49;100.00
17593;BME280;8915;51.760;14.300;2022-08-21T08:18:02;100767.09;;;18.62;100.00
17593;BME280;8915;51.760;14.300;2022-08-21T08:20:29;100771.53;;;18.61;100.00
17593;BME280;8915;51.760;14.300;2022-08-21T08:22:56;100762.13;;;18.55;100.00
17593;BME280;8915;51.760;14.300;2022-08-21T08:25:24;100773.00;;;18.81;100.00
17593;BME280;8915;51.760;14.300;2022-08-21T08:27:51;100781.78;;;18.82;100.00
17593;BME280;8915;51.760;14.300;2022-08-21T08:30:19;100782.56;;;18.68;100.00
17593;BME280;8915;51.760;14.300;2022-08-21T08:32:47;100776.78;;;18.77;100.00
17593;BME280;8915;51.760;14.300;2022-08-21T08:35:14;100783.66;;;18.80;100.00
17593;BME280;8915;51.760;14.300;2022-08-21T08:37:41;100786.44;;;18.92;100.00
17593;BME280;8915;51.760;14.300;2022-08-21T08:40:12;100787.09;;;18.82;100.00
17593;BME280;8915;51.760;14.300;2022-08-21T08:42:40;100785.91;;;18.87;100.00
17593;BME280;8915;51.760;14.300;2022-08-21T08:45:09;100785.19;;;19.00;100.00
17593;BME280;8915;51.760;14.300;2022-08-21T08:47:40;100787.59;;;18.88;100.00
17593;BME280;8915;51.760;14.300;2022-08-21T08:50:12;100776.66;;;18.95;100.00
17593;BME280;8915;51.760;14.300;2022-08-21T08:52:42;100782.22;;;18.90;100.00
17593;BME280;8915;51.760;14.300;2022-08-21T08:55:13;100781.63;;;18.85;100.00
17593;BME280;8915;51.760;14.300;2022-08-21T08:57:44;100775.63;;;18.97;100.00
17593;BME280;8915;51.760;14.300;2022-08-21T09:00:13;100783.63;;;18.96;100.00
17593;BME280;8915;51.760;14.300;2022-08-21T09:02:43;100776.03;;;19.05;100.00
17593;BME280;8915;51.760;14.300;2022-08-21T09:05:19;100778.59;;;19.21;100.00
17593;BME280;8915;51.760;14.300;2022-08-21T09:07:56;100780.28;;;19.22;100.00
17593;BME280;8915;51.760;14.300;2022-08-21T09:10:34;100788.34;;;19.21;100.00
17593;BME280;8915;51.760;14.300;2022-08-21T09:13:07;100791.44;;;19.27;100.00
17593;BME280;8915;51.760;14.300;2022-08-21T09:15:46;100787.75;;;19.16;100.00
17593;BME280;8915;51.760;14.300;2022-08-21T09:18:26;100780.03;;;19.27;100.00
17593;BME280;8915;51.760;14.300;2022-08-21T09:21:09;100790.25;;;19.33;100.00
17593;BME280;8915;51.760;14.300;2022-08-21T09:23:44;100785.88;;;19.32;100.00
17593;BME280;8915;51.760;14.300;2022-08-21T09:26:14;100790.63;;;19.41;100.00
17593;BME280;8915;51.760;14.300;2022-08-21T09:28:41;100786.56;;;19.50;100.00
17593;BME280;8915;51.760;14.300;2022-08-21T09:31:12;100777.69;;;19.51;100.00
17593;BME280;8915;51.760;14.300;2022-08-21T09:33:43;100771.66;;;19.63;100.00
17593;BME280;8915;51.760;14.300;2022-08-21T09:36:10;100776.19;;;19.61;100.00
17593;BME280;8915;51.760;14.300;2022-08-21T09:38:37;100771.06;;;19.73;100.00
17593;BME280;8915;51.760;14.300;2022-08-21T09:41:06;100775.53;;;19.72;100.00
17593;BME280;8915;51.760;14.300;2022-08-21T09:43:34;100776.47;;;19.71;100.00
17593;BME280;8915;51.760;14.300;2022-08-21T09:46:06;100774.31;;;19.78;100.00
17593;BME280;8915;51.760;14.300;2022-08-21T09:48:45;100775.63;;;19.85;100.00
17593;BME280;8915;51.760;14.300;2022-08-21T09:51:19;100777.78;;;19.93;100.00
17593;BME280;8915;51.760;14.300;2022-08-21T09:53:49;100774.91;;;20.10;100.00
17593;BME280;8915;51.760;14.300;2022-08-21T09:56:20;100777.84;;;20.20;100.00
17593;BME280;8915;51.760;14.300;2022-08-21T09:59:24;100781.19;;;20.36;100.00
17593;BME280;8915;51.760;14.300;2022-08-21T10:01:53;100784.25;;;20.30;100.00
17593;BME280;8915;51.760;14.300;2022-08-21T10:04:24;100775.00;;;20.50;100.00
17593;BME280;8915;51.760;14.300;2022-08-21T10:06:50;100775.00;;;20.50;100.00
17593;BME280;8915;51.760;14.300;2022-08-21T10:09:18;100774.78;;;20.68;100.00
17593;BME280;8915;51.760;14.300;2022-08-21T10:11:52;100771.41;;;20.78;100.00
17593;BME280;8915;51.760;14.300;2022-08-21T10:14:34;100785.47;;;20.66;100.00
17593;BME280;8915;51.760;14.300;2022-08-21T10:17:07;100779.47;;;20.50;100.00
17593;BME280;8915;51.760;14.300;2022-08-21T10:19:48;100784.72;;;20.64;100.00
17593;BME280;8915;51.760;14.300;2022-08-21T10:22:26;100786.56;;;20.76;100.00
17593;BME280;8915;51.760;14.300;2022-08-21T10:25:02;100782.91;;;20.65;100.00
17593;BME280;8915;51.760;14.300;2022-08-21T10:27:36;100776.06;;;20.48;100.00
17593;BME280;8915;51.760;14.300;2022-08-21T10:30:08;100774.53;;;20.58;100.00
17593;BME280;8915;51.760;14.300;2022-08-21T10:32:49;100781.28;;;20.49;100.00
17593;BME280;8915;51.760;14.300;2022-08-21T10:35:24;100779.84;;;20.43;100.00
17593;BME280;8915;51.760;14.300;2022-08-21T10:40:52;100775.00;;;20.50;100.00
17593;BME280;8915;51.760;14.300;2022-08-21T10:43:30;100768.78;;;20.51;100.00
17593;BME280;8915;51.760;14.300;2022-08-21T10:46:08;100781.19;;;20.36;100.00
17593;BME280;8915;51.760;14.300;2022-08-21T10:48:43;100769.66;;;20.37;100.00
17593;BME280;8915;51.760;14.300;2022-08-21T10:51:17;100771.75;;;20.32;100.00
17593;BME280;8915;51.760;14.300;2022-08-21T10:53:54;100774.41;;;20.32;100.00
17593;BME280;8915;51.760;14.300;2022-08-21T10:56:24;100772.88;;;20.42;100.00
17593;BME280;8915;51.760;14.300;2022-08-21T10:59:02;100765.78;;;20.56;100.00
17593;BME280;8915;51.760;14.300;2022-08-21T11:01:34;100774.03;;;20.66;100.00
17593;BME280;8915;51.760;14.300;2022-08-21T11:04:11;100763.78;;;20.74;100.00
17593;BME280;8915;51.760;14.300;2022-08-21T11:06:42;100772.56;;;20.74;100.00
17593;BME280;8915;51.760;14.300;2022-08-21T11:09:14;100787.75;;;20.58;100.00
17593;BME280;8915;51.760;14.300;2022-08-21T11:11:47;100766.88;;;20.53;100.00
17593;BME280;8915;51.760;14.300;2022-08-21T11:14:22;100766.50;;;20.45;100.00
17593;BME280;8915;51.760;14.300;2022-08-21T11:16:53;100769.50;;;20.53;100.00
17593;BME280;8915;51.760;14.300;2022-08-21T11:19:27;100764.97;;;20.55;100.00
17593;BME280;8915;51.760;14.300;2022-08-21T11:22:08;100768.31;;;20.45;100.00
17593;BME280;8915;51.760;14.300;2022-08-21T11:24:42;100770.13;;;20.44;100.00
17593;BME280;8915;51.760;14.300;2022-08-21T11:27:17;100765.25;;;20.51;100.00
17593;BME280;8915;51.760;14.300;2022-08-21T11:29:54;100775.00;;;20.50;100.00
17593;BME280;8915;51.760;14.300;2022-08-21T11:32:35;100773.66;;;20.57;100.00
17593;BME280;8915;51.760;14.300;2022-08-21T11:35:21;100772.72;;;20.58;100.00
17593;BME280;8915;51.760;14.300;2022-08-21T11:38:01;100777.91;;;20.60;100.00
17593;BME280;8915;51.760;14.300;2022-08-21T11:40:40;100774.72;;;20.55;100.00
17593;BME280;8915;51.760;14.300;2022-08-21T11:43:17;100778.28;;;20.54;100.00
17593;BME280;8915;51.760;14.300;2022-08-21T11:45:49;100775.34;;;20.58;100.00
17593;BME280;8915;51.760;14.300;2022-08-21T11:48:27;100768.22;;;20.73;100.00
17593;BME280;8915;51.760;14.300;2022-08-21T11:50:58;100764.28;;;20.66;99.81
17593;BME280;8915;51.760;14.300;2022-08-21T11:53:31;100772.31;;;20.65;97.85
17593;BME280;8915;51.760;14.300;2022-08-21T11:56:03;100774.69;;;20.69;100.00
17593;BME280;8915;51.760;14.300;2022-08-21T11:58:36;100777.03;;;20.59;100.00
17593;BME280;8915;51.760;14.300;2022-08-21T12:01:07;100773.41;;;20.48;100.00
17593;BME280;8915;51.760;14.300;2022-08-21T12:03:37;100777.59;;;20.37;97.78
17593;BME280;8915;51.760;14.300;2022-08-21T12:06:07;100766.50;;;20.45;100.00
17593;BME280;8915;51.760;14.300;2022-08-21T12:08:37;100776.63;;;20.53;97.24
17593;BME280;8915;51.760;14.300;2022-08-21T12:11:06;100780.94;;;20.54;93.56
17593;BME280;8915;51.760;14.300;2022-08-21T12:13:36;100766.75;;;20.82;99.71
17593;BME280;8915;51.760;14.300;2022-08-21T12:16:08;100771.56;;;21.03;90.56
17593;BME280;8915;51.760;14.300;2022-08-21T12:18:35;100764.69;;;21.26;93.05
17593;BME280;8915;51.760;14.300;2022-08-21T12:21:16;100766.94;;;21.32;91.19
17593;BME280;8915;51.760;14.300;2022-08-21T12:23:46;100767.34;;;21.13;90.25
17593;BME280;8915;51.760;14.300;2022-08-21T12:26:23;100765.09;;;21.07;88.68
17593;BME280;8915;51.760;14.300;2022-08-21T12:28:50;100764.06;;;21.22;92.95
17593;BME280;8915;51.760;14.300;2022-08-21T12:31:19;100769.78;;;21.54;92.05
17593;BME280;8915;51.760;14.300;2022-08-21T12:33:51;100766.28;;;21.80;86.25
17593;BME280;8915;51.760;14.300;2022-08-21T12:36:21;100764.53;;;21.91;88.26
17593;BME280;8915;51.760;14.300;2022-08-21T12:38:55;100781.03;;;21.58;80.57
17593;BME280;8915;51.760;14.300;2022-08-21T12:41:26;100772.97;;;21.34;79.22
17593;BME280;8915;51.760;14.300;2022-08-21T12:43:57;100765.97;;;21.46;85.50
17593;BME280;8915;51.760;14.300;2022-08-21T12:46:30;100764.25;;;21.70;87.18
17593;BME280;8915;51.760;14.300;2022-08-21T12:49:03;100763.59;;;21.92;85.12
17593;BME280;8915;51.760;14.300;2022-08-21T12:51:46;100764.22;;;21.96;85.80
17593;BME280;8915;51.760;14.300;2022-08-21T12:54:24;100761.03;;;21.91;87.06
17593;BME280;8915;51.760;14.300;2022-08-21T12:56:56;100761.75;;;21.69;83.43